Time;durP1;ratioP1;P1;durP2;ratioP2;P2;SDS_P1;SDS_P2;PMS_P1;PMS_P2;Temp;Humidity;BMP_temperature;BMP_pressure;BME280_temperature;BME280_humidity;BME280_pressure;Samples;Min_cycle;Max_cycle;Signal;HPM_P1;HPM_P2
2023/06/14 00:00:44;;;;;;;52.40;22.98;;;;;;;14.35;100.00;92134.06;4761107;30;20047;-81
2023/06/14 00:03:11;;;;;;;62.08;27.13;;;;;;;14.36;100.00;92122.47;4776597;30;20051;-81
2023/06/14 00:05:42;;;;;;;62.17;28.30;;;;;;;14.33;100.00;92117.03;4762762;30;20078;-81
2023/06/14 00:08:11;;;;;;;65.32;29.30;;;;;;;14.34;100.00;92124.63;4778612;30;20089;-81
2023/06/14 00:10:37;;;;;;;67.18;28.85;;;;;;;14.34;100.00;92123.84;4777544;30;20031;-80
2023/06/14 00:13:07;;;;;;;65.45;28.55;;;;;;;14.35;100.00;92118.28;4762344;30;20391;-81
2023/06/14 00:15:33;;;;;;;63.20;28.05;;;;;;;14.35;100.00;92118.28;4761349;30;20143;-81
2023/06/14 00:18:01;;;;;;;67.50;29.42;;;;;;;14.31;100.00;92109.47;4762862;30;20074;-81
2023/06/14 00:20:28;;;;;;;61.83;28.60;;;;;;;14.34;100.00;92113.31;4778808;30;20048;-81
2023/06/14 00:22:55;;;;;;;70.30;29.20;;;;;;;14.29;100.00;92106.38;4768523;30;20112;-81
2023/06/14 00:25:23;;;;;;;62.22;29.60;;;;;;;14.31;100.00;92104.19;4778503;30;20519;-81
2023/06/14 00:27:48;;;;;;;63.05;29.73;;;;;;;14.29;100.00;92109.00;4778571;30;20097;-80
2023/06/14 00:30:14;;;;;;;63.47;29.35;;;;;;;14.26;100.00;92101.75;4757604;30;20048;-81
2023/06/14 00:32:42;;;;;;;68.68;29.58;;;;;;;14.27;100.00;92108.53;4775359;30;20074;-80
2023/06/14 00:35:09;;;;;;;64.10;29.33;;;;;;;14.26;100.00;92106.25;4779381;30;20061;-81
2023/06/14 00:37:36;;;;;;;57.15;27.42;;;;;;;14.26;100.00;92106.25;4762545;30;20039;-81
2023/06/14 00:40:02;;;;;;;57.58;27.08;;;;;;;14.22;100.00;92100.84;4753654;30;20050;-81
2023/06/14 00:42:28;;;;;;;63.30;27.55;;;;;;;14.20;100.00;92097.75;4756039;30;20047;-81
2023/06/14 00:44:55;;;;;;;54.42;25.00;;;;;;;14.21;100.00;92090.59;4757361;30;20487;-81
2023/06/14 00:47:20;;;;;;;48.28;23.98;;;;;;;14.18;100.00;92099.16;4743920;30;20059;-80
2023/06/14 00:49:53;;;;;;;47.05;22.58;;;;;;;14.17;100.00;92090.50;4760734;30;20043;-80
2023/06/14 00:52:20;;;;;;;46.70;20.90;;;;;;;14.13;100.00;92092.22;4755245;30;20044;-80
2023/06/14 00:54:46;;;;;;;43.40;20.50;;;;;;;14.14;100.00;92094.53;4760236;30;20040;-80
2023/06/14 00:57:12;;;;;;;38.22;19.38;;;;;;;14.16;100.00;92086.31;4763419;30;20086;-80
2023/06/14 00:59:45;;;;;;;40.20;19.25;;;;;;;14.12;100.00;92094.06;4748575;30;20040;-79
2023/06/14 01:02:11;;;;;;;40.83;19.13;;;;;;;14.10;100.00;92095.47;4756032;30;20082;-80
2023/06/14 01:04:41;;;;;;;45.35;19.55;;;;;;;14.06;100.00;92089.31;4749701;30;20039;-81
2023/06/14 01:07:14;;;;;;;37.70;18.80;;;;;;;14.08;100.00;92097.66;4780299;30;20062;-80
2023/06/14 01:09:58;;;;;;;41.15;19.10;;;;;;;14.04;100.00;92084.34;4779156;30;20040;-80
2023/06/14 01:12:55;;;;;;;37.00;19.23;;;;;;;14.03;100.00;92087.31;4769738;30;20841;-81
2023/06/14 01:15:23;;;;;;;41.03;19.58;;;;;;;14.05;100.00;92085.13;4766471;30;20164;-80
2023/06/14 01:17:53;;;;;;;42.47;20.25;;;;;;;14.04;100.00;92091.47;4756139;30;20071;-81
2023/06/14 01:20:21;;;;;;;37.80;18.63;;;;;;;14.06;100.00;92094.56;4764209;30;20047;-81
2023/06/14 01:22:53;;;;;;;39.60;19.45;;;;;;;14.03;100.00;92097.84;4780217;30;20048;-79
2023/06/14 01:25:25;;;;;;;37.22;17.23;;;;;;;14.00;100.00;92096.59;4745672;30;20479;-80
2023/06/14 01:28:00;;;;;;;39.90;19.50;;;;;;;14.02;100.00;92093.66;4771065;30;20048;-79
2023/06/14 01:30:26;;;;;;;43.63;19.17;;;;;;;14.00;100.00;92101.09;4759610;30;20504;-79
2023/06/14 01:32:54;;;;;;;37.03;18.73;;;;;;;13.99;100.00;92097.69;4782599;30;20042;-79
2023/06/14 01:35:20;;;;;;;40.58;18.13;;;;;;;13.98;100.00;92095.38;4769998;30;20116;-81
2023/06/14 01:37:51;;;;;;;34.33;18.50;;;;;;;13.98;100.00;92103.25;4767818;30;20100;-79
2023/06/14 01:40:18;;;;;;;32.63;17.00;;;;;;;13.94;100.00;92105.75;4765096;30;20119;-80
2023/06/14 01:42:46;;;;;;;32.70;16.40;;;;;;;13.91;100.00;92101.88;4765898;30;20035;-81
2023/06/14 01:45:12;;;;;;;31.70;16.65;;;;;;;13.91;100.00;92101.88;4764092;30;20044;-81
2023/06/14 01:47:39;;;;;;;32.95;16.92;;;;;;;13.92;100.00;92103.44;4779839;30;20039;-81
2023/06/14 01:50:05;;;;;;;37.33;18.45;;;;;;;13.93;100.00;92099.72;4765813;30;20047;-81
2023/06/14 01:52:31;;;;;;;32.05;17.23;;;;;;;13.94;100.00;92096.00;4772002;30;20048;-81
2023/06/14 01:54:57;;;;;;;37.35;17.58;;;;;;;13.92;100.00;92106.06;4749401;30;20095;-81
2023/06/14 01:57:26;;;;;;;31.90;16.70;;;;;;;13.91;100.00;92104.50;4781048;30;20063;-80
2023/06/14 01:59:52;;;;;;;39.55;16.98;;;;;;;13.91;100.00;92099.25;4764254;30;20036;-81
2023/06/14 02:02:18;;;;;;;30.80;16.67;;;;;;;13.93;100.00;92110.22;4750734;30;20120;-80
2023/06/14 02:04:44;;;;;;;32.38;16.75;;;;;;;13.93;100.00;92107.59;4736135;30;20028;-81
2023/06/14 02:07:10;;;;;;;30.55;14.65;;;;;;;13.95;100.00;92105.44;4744910;30;20044;-81
2023/06/14 02:09:36;;;;;;;24.08;12.90;;;;;;;13.93;100.00;92102.34;4765214;30;20055;-81
2023/06/14 02:12:02;;;;;;;24.17;12.70;;;;;;;13.92;100.00;92106.06;4765244;30;20048;-81
2023/06/14 02:14:29;;;;;;;24.92;11.98;;;;;;;13.90;100.00;92102.97;4765743;30;20051;-81
2023/06/14 02:16:54;;;;;;;22.63;11.55;;;;;;;13.91;100.00;92109.00;4777733;30;20070;-81
2023/06/14 02:19:20;;;;;;;20.45;11.88;;;;;;;13.94;100.00;92111.03;4767195;30;20050;-81
2023/06/14 02:21:46;;;;;;;22.45;11.80;;;;;;;13.92;100.00;92102.69;4749929;30;20063;-80
2023/06/14 02:24:13;;;;;;;24.35;12.73;;;;;;;13.92;100.00;92106.06;4779655;30;20797;-80
2023/06/14 02:26:38;;;;;;;22.08;11.80;;;;;;;13.91;100.00;92104.50;4757460;30;20464;-81
2023/06/14 02:29:05;;;;;;;22.10;12.30;;;;;;;13.94;100.00;92100.50;4766508;30;20082;-81
2023/06/14 02:31:32;;;;;;;27.88;12.18;;;;;;;13.98;100.00;92100.63;4764515;30;20052;-81
2023/06/14 02:33:58;;;;;;;29.23;11.63;;;;;;;13.98;100.00;92100.63;4763660;30;20027;-81
2023/06/14 02:36:24;;;;;;;25.20;11.55;;;;;;;13.98;100.00;92100.63;4761950;30;20078;-81
2023/06/14 02:38:50;;;;;;;23.80;12.93;;;;;;;13.98;100.00;92096.13;4781232;30;20485;-80
2023/06/14 02:41:15;;;;;;;24.10;12.65;;;;;;;14.01;100.00;92105.28;4734217;30;20040;-80
2023/06/14 02:43:41;;;;;;;29.85;14.70;;;;;;;13.99;100.00;92096.94;4746232;30;20078;-80
2023/06/14 02:46:07;;;;;;;28.15;14.43;;;;;;;14.03;100.00;92103.88;4761803;30;20044;-81
2023/06/14 02:48:33;;;;;;;26.70;13.80;;;;;;;14.01;100.00;92100.78;4760002;30;20036;-81
2023/06/14 02:50:58;;;;;;;29.98;15.68;;;;;;;14.04;100.00;92091.47;4746144;30;20047;-80
2023/06/14 02:53:24;;;;;;;31.65;15.75;;;;;;;14.03;100.00;92093.34;4775746;30;20059;-80
2023/06/14 02:55:50;;;;;;;35.03;15.65;;;;;;;14.03;100.00;92092.56;4756174;30;20263;-81
2023/06/14 02:58:18;;;;;;;30.65;16.08;;;;;;;14.03;100.00;92092.56;4750040;30;20097;-80
2023/06/14 03:00:43;;;;;;;32.92;16.17;;;;;;;14.08;100.00;92089.75;4764169;30;20039;-81
2023/06/14 03:03:13;;;;;;;32.58;16.13;;;;;;;14.10;100.00;92088.34;4762992;30;20040;-80
2023/06/14 03:05:45;;;;;;;33.15;16.60;;;;;;;14.10;100.00;92077.81;4766274;30;20059;-81
2023/06/14 03:08:16;;;;;;;28.40;15.73;;;;;;;14.10;100.00;92082.31;4750038;30;20139;-81
2023/06/14 03:10:43;;;;;;;31.02;15.70;;;;;;;14.08;100.00;92076.59;4759652;30;20425;-81
2023/06/14 03:13:11;;;;;;;32.67;15.82;;;;;;;14.05;100.00;92072.75;4763784;30;20115;-81
2023/06/14 03:15:36;;;;;;;29.52;15.70;;;;;;;14.07;100.00;92075.84;4764136;30;20071;-80
2023/06/14 03:18:03;;;;;;;33.03;16.92;;;;;;;14.09;100.00;92080.75;4748833;30;20044;-81
2023/06/14 03:20:32;;;;;;;34.58;17.08;;;;;;;14.07;100.00;92067.16;4762607;30;20118;-81
2023/06/14 03:23:00;;;;;;;31.90;18.40;;;;;;;14.08;100.00;92074.75;4763605;30;20070;-81
2023/06/14 03:25:29;;;;;;;37.80;20.05;;;;;;;14.09;100.00;92076.25;4781207;30;20055;-81
2023/06/14 03:27:56;;;;;;;35.33;18.48;;;;;;;14.10;100.00;92071.78;4763661;30;20039;-81
2023/06/14 03:30:22;;;;;;;38.03;18.17;;;;;;;14.10;100.00;92072.56;4747623;30;20130;-81
2023/06/14 03:32:51;;;;;;;43.28;21.17;;;;;;;14.09;100.00;92070.25;4743949;30;20111;-80
2023/06/14 03:35:17;;;;;;;46.10;21.08;;;;;;;14.08;100.00;92066.06;4735839;30;20127;-80
2023/06/14 03:37:45;;;;;;;40.08;21.95;;;;;;;14.07;100.00;92067.16;4748822;30;20054;-81
2023/06/14 03:40:13;;;;;;;39.25;20.98;;;;;;;14.09;100.00;92071.00;4747230;30;20055;-80
2023/06/14 03:42:41;;;;;;;40.92;20.80;;;;;;;14.11;100.00;92068.06;4752927;30;20081;-81
2023/06/14 03:45:07;;;;;;;44.53;21.80;;;;;;;14.11;100.00;92066.19;4756238;30;20032;-80
2023/06/14 03:47:34;;;;;;;41.80;20.98;;;;;;;14.17;100.00;92069.44;4764221;30;20040;-81
2023/06/14 03:50:01;;;;;;;37.60;19.98;;;;;;;14.19;100.00;92069.88;4763327;30;20051;-80
2023/06/14 03:52:27;;;;;;;38.63;20.00;;;;;;;14.19;100.00;92069.13;4761918;30;20062;-80
2023/06/14 03:54:53;;;;;;;37.83;19.02;;;;;;;14.20;100.00;92062.75;4763572;30;20089;-81
2023/06/14 03:57:19;;;;;;;37.50;19.90;;;;;;;14.19;100.00;92061.22;4763901;30;20040;-80
2023/06/14 03:59:47;;;;;;;36.50;20.33;;;;;;;14.19;100.00;92059.34;4771370;30;20051;-80
2023/06/14 04:02:17;;;;;;;35.35;19.67;;;;;;;14.22;100.00;92063.97;4746612;30;20017;-81
2023/06/14 04:04:45;;;;;;;43.35;20.58;;;;;;;14.24;100.00;92064.44;4773475;30;20064;-81
2023/06/14 04:07:12;;;;;;;35.28;18.30;;;;;;;14.25;100.00;92065.19;4774071;30;20040;-79
2023/06/14 04:09:39;;;;;;;37.40;20.33;;;;;;;14.27;100.00;92069.06;4766902;30;20044;-79
2023/06/14 04:12:05;;;;;;;43.20;20.40;;;;;;;14.28;100.00;92070.63;4745702;30;20048;-78
2023/06/14 04:14:32;;;;;;;36.92;19.38;;;;;;;14.31;100.00;92072.59;4758957;30;20040;-76
2023/06/14 04:16:59;;;;;;;36.20;19.08;;;;;;;14.32;100.00;92083.91;4754370;30;20047;-81
2023/06/14 04:19:25;;;;;;;42.58;19.85;;;;;;;14.32;100.00;92079.41;4758013;30;20477;-80
2023/06/14 04:21:52;;;;;;;39.80;20.80;;;;;;;14.32;100.00;92079.41;4751646;30;20055;-79
2023/06/14 04:24:18;;;;;;;35.13;19.27;;;;;;;14.35;100.00;92078.78;4751702;30;20039;-79
2023/06/14 04:26:51;;;;;;;38.50;18.73;;;;;;;14.32;100.00;92079.41;4746972;30;20032;-80
2023/06/14 04:29:19;;;;;;;32.17;18.13;;;;;;;14.32;100.00;92084.69;4746092;30;20055;-79
2023/06/14 04:31:51;;;;;;;31.40;18.17;;;;;;;14.26;100.00;92085.94;4749178;30;20047;-79
2023/06/14 04:34:17;;;;;;;35.28;17.70;;;;;;;14.32;100.00;92094.44;4761920;30;20126;-79
2023/06/14 04:36:52;;;;;;;27.92;15.57;;;;;;;14.28;100.00;92086.41;4763138;30;20047;-80
2023/06/14 04:39:23;;;;;;;32.05;19.58;;;;;;;14.25;100.00;92087.06;4744900;30;20068;-79
2023/06/14 04:41:56;;;;;;;37.75;19.73;;;;;;;14.22;100.00;92094.81;4753982;30;20830;-79
2023/06/14 04:44:29;;;;;;;31.45;17.55;;;;;;;14.28;100.00;92096.19;4761043;30;20052;-78
2023/06/14 04:46:58;;;;;;;29.60;17.38;;;;;;;14.27;100.00;92098.00;4733409;30;20396;-79
2023/06/14 04:49:27;;;;;;;31.77;18.30;;;;;;;14.25;100.00;92099.41;4762688;30;20047;-79
2023/06/14 04:51:57;;;;;;;30.33;17.85;;;;;;;14.24;100.00;92098.66;4758639;30;20032;-80
2023/06/14 04:54:25;;;;;;;34.25;18.52;;;;;;;14.25;100.00;92096.78;4754783;30;20150;-79
2023/06/14 04:56:53;;;;;;;33.90;18.55;;;;;;;14.27;100.00;92100.66;4760298;30;20315;-78
2023/06/14 04:59:22;;;;;;;32.05;18.13;;;;;;;14.29;100.00;92095.84;4759736;30;20047;-79
2023/06/14 05:01:54;;;;;;;31.10;17.92;;;;;;;14.28;100.00;92091.66;4761207;30;20055;-79
2023/06/14 05:04:21;;;;;;;34.42;18.88;;;;;;;14.34;100.00;92097.50;4749280;30;20036;-79
2023/06/14 05:06:49;;;;;;;32.10;17.73;;;;;;;14.34;100.00;92097.50;4764532;30;20051;-79
2023/06/14 05:09:16;;;;;;;31.73;18.45;;;;;;;14.36;100.00;92104.03;4766630;30;20067;-80
2023/06/14 05:11:44;;;;;;;33.25;19.05;;;;;;;14.38;100.00;92104.47;4760582;30;20039;-78
2023/06/14 05:14:14;;;;;;;29.30;16.83;;;;;;;14.40;100.00;92106.00;4750161;30;20044;-79
2023/06/14 05:16:40;;;;;;;33.03;18.25;;;;;;;14.40;100.00;92104.16;4751073;30;20047;-80
2023/06/14 05:19:06;;;;;;;31.88;17.85;;;;;;;14.38;100.00;92104.47;4772435;30;20067;-79
2023/06/14 05:21:34;;;;;;;27.45;17.33;;;;;;;14.40;100.00;92104.16;4763397;30;20044;-79
2023/06/14 05:24:00;;;;;;;29.80;17.27;;;;;;;14.40;100.00;92109.41;4778923;30;20399;-78
2023/06/14 05:26:30;;;;;;;33.55;17.73;;;;;;;14.50;100.00;92110.91;4787373;30;20040;-79
2023/06/14 05:29:00;;;;;;;30.42;18.02;;;;;;;14.48;100.00;92107.84;4786690;30;20043;-79
2023/06/14 05:31:26;;;;;;;28.15;17.23;;;;;;;14.53;100.00;92110.28;4778359;30;20047;-79
2023/06/14 05:33:53;;;;;;;32.88;17.58;;;;;;;14.50;100.00;92110.91;4765238;30;20130;-79
2023/06/14 05:36:19;;;;;;;33.20;18.70;;;;;;;14.51;100.00;92113.22;4765567;30;20040;-79
2023/06/14 05:38:45;;;;;;;30.65;17.27;;;;;;;14.50;100.00;92110.91;4762696;30;20046;-79
2023/06/14 05:41:11;;;;;;;31.65;17.75;;;;;;;14.52;100.00;92106.88;4764472;30;20054;-79
2023/06/14 05:43:36;;;;;;;27.42;15.90;;;;;;;14.62;100.00;92116.28;4756477;30;20032;-79
2023/06/14 05:46:02;;;;;;;29.77;16.60;;;;;;;14.64;100.00;92116.75;4780685;30;20394;-78
2023/06/14 05:48:28;;;;;;;27.73;16.83;;;;;;;14.64;100.00;92119.38;4779719;30;20130;-79
2023/06/14 05:50:54;;;;;;;27.60;16.10;;;;;;;14.63;100.00;92117.81;4764387;30;20075;-79
2023/06/14 05:53:20;;;;;;;26.58;17.75;;;;;;;14.61;100.00;92125.28;4762459;30;20032;-80
2023/06/14 05:55:45;;;;;;;26.92;16.17;;;;;;;14.64;100.00;92122.03;4779893;30;20051;-78
2023/06/14 05:58:12;;;;;;;27.67;16.83;;;;;;;14.70;100.00;92122.59;4782002;30;20407;-79
2023/06/14 06:00:39;;;;;;;27.80;16.40;;;;;;;14.77;100.00;92121.00;4754523;30;20039;-79
2023/06/14 06:03:09;;;;;;;26.08;16.23;;;;;;;14.93;100.00;92120.44;4759065;30;20067;-78
2023/06/14 06:05:34;;;;;;;26.27;16.35;;;;;;;15.00;100.00;92128.59;4766242;30;20047;-79
2023/06/14 06:08:00;;;;;;;28.27;15.82;;;;;;;15.09;100.00;92137.22;4781287;30;20099;-79
2023/06/14 06:10:26;;;;;;;28.38;16.05;;;;;;;15.16;100.00;92141.97;4781963;30;20047;-80
2023/06/14 06:12:52;;;;;;;24.88;15.73;;;;;;;15.31;100.00;92143.22;4765548;30;20061;-80
2023/06/14 06:15:18;;;;;;;26.70;15.90;;;;;;;15.48;100.00;92140.44;4750596;30;20051;-79
2023/06/14 06:17:44;;;;;;;25.45;15.68;;;;;;;15.68;100.00;92135.47;4764686;30;20055;-79
2023/06/14 06:20:11;;;;;;;25.35;14.82;;;;;;;15.82;100.00;92135.97;4779572;30;20073;-79
2023/06/14 06:22:37;;;;;;;35.55;14.80;;;;;;;15.95;100.00;92134.91;4750400;30;20124;-80
2023/06/14 06:25:03;;;;;;;23.42;13.73;;;;;;;15.99;100.00;92135.78;4765605;30;20032;-80
2023/06/14 06:27:29;;;;;;;23.60;13.63;;;;;;;16.06;100.00;92139.75;4778558;30;20044;-80
2023/06/14 06:29:55;;;;;;;19.60;12.68;;;;;;;16.13;100.00;92151.31;4769015;30;20036;-79
2023/06/14 06:32:20;;;;;;;20.23;13.32;;;;;;;16.01;100.00;92141.50;4782697;30;20060;-79
2023/06/14 06:34:46;;;;;;;22.60;13.35;;;;;;;16.00;100.00;92147.88;4766137;30;20078;-79
2023/06/14 06:37:13;;;;;;;21.35;13.30;;;;;;;15.78;100.00;92145.63;4750114;30;20480;-80
2023/06/14 06:39:38;;;;;;;19.63;13.80;;;;;;;15.71;100.00;92146.16;4781550;30;20101;-79
2023/06/14 06:42:05;;;;;;;20.40;13.57;;;;;;;15.67;100.00;92155.03;4765692;30;20047;-79
2023/06/14 06:44:35;;;;;;;21.70;14.00;;;;;;;15.61;100.00;92163.16;4765698;30;20043;-79
2023/06/14 06:47:02;;;;;;;20.52;13.82;;;;;;;15.52;100.00;92159.81;4765437;30;20054;-80
2023/06/14 06:49:27;;;;;;;27.88;14.15;;;;;;;15.24;100.00;92164.06;4784564;30;20505;-79
2023/06/14 06:52:20;;;;;;;19.90;12.73;;;;;;;15.12;100.00;92157.66;4767002;30;20100;-80
2023/06/14 06:54:45;;;;;;;80.72;15.35;;;;;;;15.08;100.00;92162.00;4763641;30;20052;-79
2023/06/14 06:57:11;;;;;;;20.55;13.77;;;;;;;15.10;100.00;92162.47;4782386;30;20377;-79
2023/06/14 06:59:37;;;;;;;18.42;12.85;;;;;;;15.14;100.00;92162.59;4782593;30;20119;-80
2023/06/14 07:02:06;;;;;;;21.58;13.30;;;;;;;15.32;100.00;92168.53;4752436;30;20035;-80
2023/06/14 07:04:32;;;;;;;20.83;13.23;;;;;;;15.38;100.00;92175.16;4751537;30;20054;-80
2023/06/14 07:06:57;;;;;;;20.63;13.32;;;;;;;15.62;100.00;92180.50;4765704;30;20126;-80
2023/06/14 07:09:24;;;;;;;19.52;13.13;;;;;;;16.10;100.00;92177.59;4752146;30;20039;-80
2023/06/14 07:11:50;;;;;;;20.95;14.68;;;;;;;16.36;100.00;92172.03;4750648;30;20051;-80
2023/06/14 07:14:16;;;;;;;20.60;13.48;;;;;;;16.43;100.00;92178.28;4764060;30;20519;-79
2023/06/14 07:16:42;;;;;;;22.30;13.27;;;;;;;16.60;100.00;92173.91;4766204;30;20166;-79
2023/06/14 07:19:09;;;;;;;22.00;11.88;;;;;;;16.90;100.00;92181.63;4781842;30;20111;-80
2023/06/14 07:21:38;;;;;;;17.45;11.70;;;;;;;17.16;100.00;92183.94;4766574;30;20055;-80
2023/06/14 07:24:06;;;;;;;17.30;11.80;;;;;;;17.05;100.00;92183.59;4780922;30;20059;-79
2023/06/14 07:26:32;;;;;;;16.27;10.38;;;;;;;17.10;100.00;92182.59;4764946;30;20047;-79
2023/06/14 07:28:57;;;;;;;18.85;11.82;;;;;;;17.10;100.00;92186.00;4764713;30;20109;-78
2023/06/14 07:31:23;;;;;;;16.88;11.15;;;;;;;16.87;100.00;92195.53;4776430;30;20043;-78
2023/06/14 07:33:48;;;;;;;16.02;10.35;;;;;;;16.84;100.00;92204.88;4778188;30;20050;-78
2023/06/14 07:36:14;;;;;;;14.25;10.10;;;;;;;16.42;100.00;92203.19;4776546;30;20415;-78
2023/06/14 07:38:40;;;;;;;14.35;10.02;;;;;;;16.43;100.00;92202.06;4776637;30;20439;-78
2023/06/14 07:41:07;;;;;;;14.45;9.15;;;;;;;16.48;100.00;92206.38;4746702;30;20024;-79
2023/06/14 07:43:33;;;;;;;11.43;8.10;;;;;;;16.65;100.00;92208.03;4777989;30;20069;-78
2023/06/14 07:45:58;;;;;;;11.77;7.97;;;;;;;16.73;100.00;92201.88;4760894;30;20044;-78
2023/06/14 07:48:24;;;;;;;15.57;10.65;;;;;;;16.81;100.00;92210.81;4760637;30;20040;-78
2023/06/14 07:50:49;;;;;;;13.35;9.30;;;;;;;16.81;100.00;92205.53;4775896;30;20426;-78
2023/06/14 07:53:15;;;;;;;11.15;7.40;;;;;;;16.62;100.00;92201.56;4775682;30;20051;-79
2023/06/14 07:55:42;;;;;;;14.38;8.13;;;;;;;16.82;100.00;92201.81;4759725;30;20039;-79
2023/06/14 07:58:07;;;;;;;12.68;7.82;;;;;;;16.92;100.00;92205.88;4775962;30;20131;-78
2023/06/14 08:00:33;;;;;;;8.70;6.28;;;;;;;17.12;100.00;92197.03;4759610;30;20048;-79
2023/06/14 08:02:59;;;;;;;10.50;5.85;;;;;;;17.24;100.00;92194.34;4760191;30;20055;-79
2023/06/14 08:05:28;;;;;;;7.65;5.35;;;;;;;17.24;100.00;92199.63;4759739;30;20048;-78
2023/06/14 08:07:55;;;;;;;7.65;5.40;;;;;;;17.70;100.00;92196.78;4745391;30;20097;-79
2023/06/14 08:10:22;;;;;;;12.02;6.13;;;;;;;17.97;100.00;92195.25;4776204;30;20040;-78
2023/06/14 08:12:49;;;;;;;7.35;4.88;;;;;;;18.01;100.00;92193.47;4775506;30;20040;-78
2023/06/14 08:15:16;;;;;;;11.95;8.18;;;;;;;18.18;100.00;92196.91;4760036;30;20047;-79
2023/06/14 08:17:45;;;;;;;14.20;9.40;;;;;;;17.74;100.00;92187.03;4744862;30;20043;-78
2023/06/14 08:20:11;;;;;;;9.18;5.50;;;;;;;17.57;100.00;92198.69;4759643;30;20090;-78
2023/06/14 08:22:37;;;;;;;8.00;4.78;;;;;;;17.58;100.00;92194.94;4758521;30;20075;-78
2023/06/14 08:25:04;;;;;;;6.95;4.90;;;;;;;17.59;100.00;92201.78;4726962;30;20039;-78
2023/06/14 08:27:30;;;;;;;7.93;4.13;;;;;;;17.63;100.00;92197.34;4745184;30;20055;-78
2023/06/14 08:29:56;;;;;;;7.45;4.65;;;;;;;17.50;100.00;92206.44;4730470;30;20044;-78
2023/06/14 08:32:22;;;;;;;7.13;4.70;;;;;;;17.50;100.00;92201.13;4760994;30;20477;-77
2023/06/14 08:34:47;;;;;;;7.75;4.72;;;;;;;17.40;100.00;92198.94;4730247;30;20635;-78
2023/06/14 08:37:13;;;;;;;7.68;4.93;;;;;;;17.50;100.00;92203.03;4744518;30;20137;-78
2023/06/14 08:39:39;;;;;;;6.20;4.40;;;;;;;17.61;100.00;92204.84;4752770;30;20039;-79
2023/06/14 08:42:06;;;;;;;6.40;4.45;;;;;;;17.29;100.00;92206.56;4747653;30;20126;-78
2023/06/14 08:44:32;;;;;;;7.78;4.57;;;;;;;17.28;100.00;92210.34;4777983;30;20520;-78
2023/06/14 08:46:59;;;;;;;8.07;4.40;;;;;;;17.35;100.00;92212.41;4778974;30;20040;-78
2023/06/14 08:49:26;;;;;;;6.45;4.10;;;;;;;17.42;100.00;92210.75;4778293;30;20139;-78
2023/06/14 08:52:00;;;;;;;7.25;3.83;;;;;;;17.33;100.00;92204.81;4762501;30;20051;-78
2023/06/14 08:54:32;;;;;;;6.50;4.65;;;;;;;17.16;100.00;92219.06;4759591;30;20380;-78
2023/06/14 08:56:58;;;;;;;7.13;4.60;;;;;;;17.19;100.00;92223.69;4760311;30;20055;-78
2023/06/14 08:59:28;;;;;;;5.60;3.72;;;;;;;17.38;100.00;92219.69;4767921;30;20071;-80
2023/06/14 09:01:54;;;;;;;6.53;4.18;;;;;;;18.14;100.00;92219.88;4768546;30;20043;-81
2023/06/14 09:04:29;;;;;;;6.53;4.30;;;;;;;18.76;100.00;92215.00;4755058;30;20091;-80
2023/06/14 09:06:55;;;;;;;6.10;4.03;;;;;;;19.22;100.00;92217.94;4769304;30;20064;-81
2023/06/14 09:09:25;;;;;;;6.18;4.03;;;;;;;19.56;100.00;92208.41;4785794;30;20553;-80
2023/06/14 09:11:52;;;;;;;5.88;4.00;;;;;;;19.17;100.00;92211.03;4769714;30;20058;-80
2023/06/14 09:14:18;;;;;;;12.40;4.35;;;;;;;19.00;100.00;92214.03;4768847;30;20455;-80
2023/06/14 09:16:44;;;;;;;6.22;4.18;;;;;;;18.77;100.00;92217.31;4769423;30;20072;-79
2023/06/14 09:19:22;;;;;;;8.15;4.10;;;;;;;18.61;100.00;92227.13;4755598;30;20608;-80
2023/06/14 09:21:48;;;;;;;7.65;3.80;;;;;;;18.60;100.00;92220.25;4769127;30;20043;-80
2023/06/14 09:24:14;;;;;;;5.55;3.45;;;;;;;18.54;100.00;92225.06;4785431;30;20040;-79
2023/06/14 09:26:40;;;;;;;5.30;3.40;;;;;;;18.35;100.00;92223.09;4770477;30;20065;-79
2023/06/14 09:29:06;;;;;;;6.57;3.90;;;;;;;18.28;100.00;92217.59;4786593;30;20130;-80
2023/06/14 09:31:32;;;;;;;6.05;3.67;;;;;;;18.25;100.00;92220.94;4786699;30;20514;-79
2023/06/14 09:34:01;;;;;;;5.43;3.20;;;;;;;18.23;100.00;92228.44;4786568;30;20040;-79
2023/06/14 09:36:27;;;;;;;6.20;3.72;;;;;;;18.32;100.00;92221.09;4785715;30;20035;-80
2023/06/14 09:38:56;;;;;;;7.18;4.00;;;;;;;18.75;100.00;92235.41;4786143;30;20054;-80
2023/06/14 09:41:54;;;;;;;5.80;3.95;;;;;;;19.44;100.00;92227.13;4754035;30;20115;-80
2023/06/14 09:44:21;;;;;;;6.32;4.05;;;;;;;19.46;100.00;92225.66;4745651;30;20048;-80
2023/06/14 09:46:48;;;;;;;7.18;3.95;;;;;;;19.32;100.00;92223.50;4783660;30;20050;-79
2023/06/14 09:49:13;;;;;;;5.78;3.95;;;;;;;19.61;100.00;92229.41;4767363;30;20406;-79
2023/06/14 09:51:44;;;;;;;5.45;3.40;;;;;;;19.27;100.00;92226.41;4753035;30;20039;-80
2023/06/14 09:54:16;;;;;;;5.50;3.35;;;;;;;18.70;100.00;92225.06;4767958;30;20078;-80
2023/06/14 09:56:44;;;;;;;6.18;3.60;;;;;;;18.79;100.00;92223.03;4786249;30;20522;-80
2023/06/14 09:59:12;;;;;;;6.93;3.97;;;;;;;18.93;100.00;92230.56;4770848;30;20077;-81
2023/06/14 10:01:43;;;;;;;6.85;4.07;;;;;;;18.95;100.00;92217.72;4785896;30;20048;-80
2023/06/14 10:04:09;;;;;;;8.68;3.95;;;;;;;18.88;100.00;92220.22;4768495;30;20036;-80
2023/06/14 10:06:48;;;;;;;5.80;3.85;;;;;;;18.90;100.00;92232.00;4786748;30;20039;-80
2023/06/14 10:09:14;;;;;;;6.57;4.00;;;;;;;19.27;100.00;92226.41;4756124;30;20063;-80
2023/06/14 10:11:43;;;;;;;6.00;4.32;;;;;;;19.40;100.00;92210.38;4751813;30;20052;-81
2023/06/14 10:14:11;;;;;;;6.78;3.80;;;;;;;19.37;100.00;92214.47;4741472;30;20037;-81
2023/06/14 10:17:06;;;;;;;5.95;4.03;;;;;;;19.45;100.00;92221.47;4770813;30;20055;-79
2023/06/14 10:19:42;;;;;;;8.73;4.05;;;;;;;19.44;100.00;92219.19;4777235;30;20226;-78
2023/06/14 10:22:12;;;;;;;6.10;4.25;;;;;;;19.40;100.00;92229.69;4761398;30;20047;-78
2023/06/14 10:24:45;;;;;;;5.50;3.78;;;;;;;19.87;100.00;92223.50;4761914;30;20172;-78
2023/06/14 10:27:16;;;;;;;5.90;3.40;;;;;;;19.81;100.00;92224.13;4746696;30;20035;-78
2023/06/14 10:29:57;;;;;;;6.00;3.55;;;;;;;19.76;100.00;92222.50;4756761;30;20044;-78
2023/06/14 10:32:24;;;;;;;5.65;3.72;;;;;;;19.73;100.00;92221.31;4753574;30;20487;-78
2023/06/14 10:35:00;;;;;;;7.97;3.50;;;;;;;19.60;100.00;92219.13;4739299;30;20040;-78
2023/06/14 10:37:26;;;;;;;5.03;3.50;;;;;;;19.50;100.00;92223.88;4760851;30;20073;-78
2023/06/14 10:39:53;;;;;;;6.10;3.20;;;;;;;19.44;100.00;92217.28;4776726;30;20060;-79
2023/06/14 10:42:19;;;;;;;8.57;3.78;;;;;;;19.53;100.00;92211.78;4761458;30;20066;-78
2023/06/14 10:44:55;;;;;;;5.53;3.67;;;;;;;19.53;100.00;92211.78;4759832;30;20043;-78
2023/06/14 10:47:38;;;;;;;7.50;4.25;;;;;;;19.61;100.00;92208.16;4775542;30;20044;-78
2023/06/14 10:50:11;;;;;;;6.32;3.50;;;;;;;19.90;100.00;92211.38;4774742;30;20506;-78
2023/06/14 10:52:43;;;;;;;5.95;3.30;;;;;;;20.25;100.00;92211.28;4775254;30;20100;-78
2023/06/14 10:55:14;;;;;;;5.03;3.30;;;;;;;20.61;100.00;92213.84;4758378;30;20047;-78
2023/06/14 10:57:51;;;;;;;5.30;3.40;;;;;;;20.92;100.00;92208.25;4751659;30;20039;-78
2023/06/14 11:00:24;;;;;;;7.82;3.75;;;;;;;20.91;100.00;92209.38;4775571;30;20051;-78
2023/06/14 11:03:24;;;;;;;5.07;3.50;;;;;;;21.14;100.00;92213.88;4758635;30;20385;-78
2023/06/14 11:05:58;;;;;;;5.10;3.25;;;;;;;21.45;100.00;92206.75;4761237;30;20078;-78
2023/06/14 11:08:50;;;;;;;9.10;3.97;;;;;;;21.44;100.00;92205.22;4759601;30;20138;-78
2023/06/14 11:11:17;;;;;;;4.88;3.22;;;;;;;21.10;100.00;92194.44;4715344;30;20131;-78
2023/06/14 11:13:46;;;;;;;6.32;4.03;;;;;;;20.86;100.00;92195.59;4734175;30;20035;-78
2023/06/14 11:16:13;;;;;;;5.47;3.63;;;;;;;20.76;100.00;92204.94;4759018;30;20048;-78
2023/06/14 11:18:40;;;;;;;6.13;3.63;;;;;;;21.06;100.00;92197.06;4775375;30;20047;-78